createdAt,value
2023-04-07T00:07:11.330Z,51.7
2023-04-07T00:37:12.441Z,51.8
2023-04-07T01:07:12.879Z,52
2023-04-07T01:37:13.347Z,51.9
2023-04-07T02:07:14.009Z,52
2023-04-07T02:37:14.388Z,52.1
2023-04-07T03:07:14.795Z,52.1
2023-04-07T04:07:25.993Z,52.3
2023-04-07T05:07:37.263Z,52.2
2023-04-07T05:37:37.743Z,52.1
2023-04-07T06:07:38.125Z,52.1
2023-04-07T06:37:38.975Z,52.1
2023-04-07T07:07:39.535Z,52.3
2023-04-07T07:37:40.041Z,52.2
2023-04-07T08:07:40.485Z,52.5
2023-04-07T08:37:40.927Z,52.8
2023-04-07T09:07:41.541Z,52.6
2023-04-07T09:37:41.984Z,52.7
2023-04-07T10:07:42.886Z,52.8
2023-04-07T10:37:43.434Z,53.5
2023-04-07T11:37:54.850Z,53.7
2023-04-07T12:38:05.792Z,53.8
2023-04-07T13:08:06.797Z,54.6
2023-04-07T13:38:07.299Z,54
2023-04-07T14:08:08.010Z,54.9
2023-04-07T14:38:08.428Z,54.2
2023-04-07T15:08:08.831Z,53.8
2023-04-07T15:38:09.261Z,53.5
2023-04-07T16:08:10.345Z,53.2
2023-04-07T16:38:13.812Z,53.4
2023-04-07T17:08:14.240Z,53.4
2023-04-07T18:08:25.129Z,53.3
2023-04-07T19:08:36.017Z,53.5
2023-04-07T19:38:36.457Z,53.4
2023-04-07T20:08:36.905Z,53.3
2023-04-07T20:38:37.882Z,53.3
2023-04-07T21:08:38.316Z,53.3
2023-04-07T21:38:38.743Z,53.4
2023-04-07T22:08:41.038Z,53.3
2023-04-07T22:38:49.480Z,53.4
2023-04-07T23:08:50.797Z,53.4
2023-04-07T23:38:51.903Z,53.4
